Pagrindinis puslapis
METAR-TAF:

METAR-TAF

Oro uostai :

Arekipa, Peru

platuma: 16-19S, ilguma: 071-33W, Aukštis: 2538 m

Dabartinis oras

Ataskaita buvo paskelbta 47 minutes, ne 15:00 UTC
Vėjas 2 kt nuo kintamojo kryptimis
Temperatūra 22°C
Drėgmė 12%
Slėgis 1029 hPa
Matomumas 10 km arba daugiau
nėra debesų žemiau 1500 m ir nėra kamuolinių lietaus debesų

METAR: SPQU 271500Z VRB02KT CAVOK 22/M09 Q1029 NOSIG RMK PP000

Laikas: 10:47 (15:47 UTC)

Prognozė

Ataskaita buvo paskelbta 4 valandos ir 21 minutes, ne 11:26 UTC
Prognozė galioja nuo 27 metu 12 UTC su 28 metu 12 UTC
Vėjas 7 kt iš Rytų/Šiaurės Rytų
Matomumas 10 km arba daugiau
nėra debesų žemiau 1500 m ir nėra kamuolinių lietaus debesų
Tapsmas
nuo 27 metu 19 UTC su 27 metu 20 UTC
Vėjas 11 kt iš Vakarų
Tapsmas
nuo 28 metu 00 UTC su 28 metu 02 UTC
Vėjas 6 kt iš Rytų/Šiaurės Rytų

TAF: SPQU 271126Z 2712/2812 06007KT CAVOK TX22/2717Z TN08/2810Z BECMG 2719/2720 27011KT BECMG 2800/2802 06006KT

Orai ataskaitas ir orų prognozės (METAR, TAF).

turimą stotys yra geltonos ir raudonos taškus žemėlapyje.

Perkelti pele per norėdami pamatyti stoties vardą.

Tada spustelėkite, norėdami matyti oro stebėjimo ir prognozės.

Norėdami pakeisti žemėlapį: spustelėkite ant žalios mygtukų su juodo kryžiaus žemyn,; žalią mygtuką su brūkšneliu, jei norite nutolinti; arba žalių rodyklių gretimoms žemėlapius.


METAR-TAF: